Time;durP1;ratioP1;P1;durP2;ratioP2;P2;SDS_P1;SDS_P2;PMS_P1;PMS_P2;Temp;Humidity;BMP_temperature;BMP_pressure;BME280_temperature;BME280_humidity;BME280_pressure;Samples;Min_cycle;Max_cycle;Signal;HPM_P1;HPM_P2
2023/04/26 00:00:44;;;;;;;11.23;3.13;;;4.90;99.90;3.90;99533;;;;574577;243;24123;-74
2023/04/26 00:03:15;;;;;;;10.20;3.03;;;4.80;99.90;3.80;99517;;;;574376;246;24072;-74
2023/04/26 00:05:43;;;;;;;14.27;4.10;;;4.70;99.90;3.80;99527;;;;574208;246;24116;-74
2023/04/26 00:08:11;;;;;;;6.00;2.40;;;4.70;99.90;3.70;99529;;;;574370;246;24100;-75
2023/04/26 00:10:39;;;;;;;10.17;3.03;;;4.60;99.90;3.70;99527;;;;573733;246;24173;-75
2023/04/26 00:13:07;;;;;;;10.03;3.30;;;4.60;99.90;3.60;99525;;;;573560;246;24095;-78
2023/04/26 00:15:35;;;;;;;8.03;3.20;;;4.50;99.90;3.50;99520;;;;573643;246;24108;-74
2023/04/26 00:18:02;;;;;;;7.33;3.10;;;4.50;99.90;3.50;99526;;;;573283;246;24095;-75
2023/04/26 00:20:30;;;;;;;6.40;2.87;;;4.40;99.90;3.40;99519;;;;573419;246;24400;-75
2023/04/26 00:22:59;;;;;;;11.93;3.43;;;4.30;99.90;3.40;99521;;;;573301;246;24142;-74
2023/04/26 00:25:27;;;;;;;9.57;3.70;;;4.30;99.90;3.30;99511;;;;573169;246;24064;-73
2023/04/26 00:27:55;;;;;;;9.93;3.50;;;4.20;99.90;3.30;99516;;;;573306;246;24074;-73
2023/04/26 00:30:23;;;;;;;9.20;2.73;;;4.20;99.90;3.30;99513;;;;573196;246;24074;-73
2023/04/26 00:32:51;;;;;;;7.73;2.60;;;4.20;99.90;3.30;99518;;;;573316;246;24139;-74
2023/04/26 00:35:22;;;;;;;9.83;3.17;;;4.20;99.90;3.30;99515;;;;572979;246;24041;-73
2023/04/26 00:37:47;;;;;;;9.13;3.20;;;4.20;99.90;3.20;99526;;;;568171;246;24113;-75
2023/04/26 00:40:16;;;;;;;11.97;3.60;;;4.10;99.90;3.30;99520;;;;573398;246;24077;-76
2023/04/26 00:42:44;;;;;;;9.23;3.30;;;4.10;99.90;3.30;99515;;;;573097;246;24074;-75
2023/04/26 00:45:12;;;;;;;8.03;2.87;;;4.20;99.90;3.30;99514;;;;573983;246;24152;-78
2023/04/26 00:47:43;;;;;;;12.97;3.30;;;4.20;99.90;3.40;99520;;;;573940;246;24068;-79
2023/04/26 00:50:11;;;;;;;9.97;2.87;;;4.30;99.90;3.40;99511;;;;573782;246;24081;-78
2023/04/26 00:52:35;;;;;;;11.83;5.00;;;4.30;99.90;3.50;99509;;;;573773;246;24135;-74
2023/04/26 00:55:06;;;;;;;12.13;2.97;;;4.40;99.90;3.60;99512;;;;577538;246;24082;-76
2023/04/26 00:57:31;;;;;;;10.90;2.87;;;4.40;99.90;3.60;99507;;;;573437;246;24101;-74
2023/04/26 00:59:59;;;;;;;8.13;2.67;;;4.40;99.90;3.60;99507;;;;573689;246;24076;-73
2023/04/26 01:02:27;;;;;;;9.43;3.07;;;4.40;99.90;3.60;99505;;;;574170;246;24067;-74
2023/04/26 01:04:55;;;;;;;10.13;2.83;;;4.40;99.90;3.70;99513;;;;573959;246;24026;-74
2023/04/26 01:07:23;;;;;;;8.93;2.80;;;4.50;99.90;3.80;99505;;;;574105;246;24074;-77
2023/04/26 01:09:51;;;;;;;10.70;2.87;;;4.60;99.90;3.90;99516;;;;575659;246;24164;-77
2023/04/26 01:12:18;;;;;;;8.13;2.60;;;4.70;99.90;4.00;99515;;;;574800;246;24071;-77
2023/04/26 01:14:46;;;;;;;9.17;2.50;;;4.80;99.90;4.10;99526;;;;574913;246;24087;-78
2023/04/26 01:17:14;;;;;;;9.53;3.13;;;4.90;99.90;4.10;99525;;;;574645;246;24083;-79
2023/04/26 01:19:51;;;;;;;7.70;2.73;;;5.00;99.90;4.20;99524;;;;574620;246;24061;-76
2023/04/26 01:22:16;;;;;;;6.53;2.60;;;5.10;99.90;4.30;99527;;;;574078;246;24069;-75
2023/04/26 01:24:43;;;;;;;10.13;3.13;;;5.10;99.90;4.40;99525;;;;574693;246;24056;-73
2023/04/26 01:27:15;;;;;;;14.53;2.77;;;5.20;99.90;4.40;99519;;;;570043;246;24126;-74
2023/04/26 01:29:42;;;;;;;10.53;2.50;;;5.20;99.90;4.40;99519;;;;573857;246;24156;-73
2023/04/26 01:32:11;;;;;;;8.70;2.53;;;5.30;99.90;4.50;99516;;;;573910;246;24073;-77
2023/04/26 01:34:36;;;;;;;8.23;2.13;;;5.30;99.90;4.50;99520;;;;577251;243;24121;-74
2023/04/26 01:37:06;;;;;;;6.57;2.57;;;5.30;99.90;4.50;99518;;;;573903;246;24057;-75
2023/04/26 01:39:36;;;;;;;2.87;1.27;;;5.40;99.90;4.60;99512;;;;574235;246;24159;-73
2023/04/26 01:42:03;;;;;;;6.10;1.67;;;5.40;99.90;4.60;99509;;;;577729;243;24120;-76
2023/04/26 01:44:32;;;;;;;7.85;2.25;;;5.40;99.90;4.60;99516;;;;568622;246;35086;-76
2023/04/26 01:46:58;;;;;;;7.30;2.03;;;5.50;99.90;4.60;99518;;;;573484;246;24152;-75
2023/04/26 01:49:26;;;;;;;6.43;2.50;;;5.40;99.90;4.70;99513;;;;573943;246;24062;-74
2023/04/26 01:51:57;;;;;;;11.33;1.93;;;5.50;99.90;4.70;99510;;;;573847;246;24071;-72
2023/04/26 01:54:26;;;;;;;6.67;2.03;;;5.50;99.90;4.70;99516;;;;573849;246;24184;-73
2023/04/26 01:56:50;;;;;;;5.97;2.30;;;5.50;99.90;4.70;99511;;;;573545;246;24201;-73
2023/04/26 01:59:19;;;;;;;4.80;1.53;;;5.60;99.90;4.80;99513;;;;573720;240;24083;-73
2023/04/26 02:01:46;;;;;;;4.73;1.50;;;5.60;99.90;4.80;99508;;;;573879;246;24100;-75
2023/04/26 02:04:14;;;;;;;3.07;1.83;;;5.60;99.90;4.80;99509;;;;573679;246;24135;-77
2023/04/26 02:06:42;;;;;;;12.77;2.60;;;5.60;99.90;4.80;99514;;;;573764;246;24104;-75
2023/04/26 02:09:10;;;;;;;4.10;1.80;;;5.60;99.90;4.80;99511;;;;573010;246;24062;-74
2023/04/26 02:11:39;;;;;;;5.97;1.70;;;5.70;99.90;4.80;99519;;;;573483;246;24092;-74
2023/04/26 02:14:07;;;;;;;10.67;1.90;;;5.70;99.90;4.80;99509;;;;573017;246;24069;-74
2023/04/26 02:16:38;;;;;;;7.27;2.13;;;5.60;99.90;4.90;99517;;;;573026;246;24048;-74
2023/04/26 02:19:04;;;;;;;6.00;1.40;;;5.70;99.90;4.90;99506;;;;572752;246;24115;-73
2023/04/26 02:21:32;;;;;;;11.97;1.40;;;5.70;99.90;4.90;99512;;;;574723;246;24101;-74
2023/04/26 02:24:00;;;;;;;6.10;2.20;;;5.70;99.90;4.90;99510;;;;569811;245;24085;-74
2023/04/26 02:26:28;;;;;;;11.37;1.80;;;5.70;99.90;4.90;99511;;;;574031;246;24090;-74
2023/04/26 02:28:56;;;;;;;5.00;1.43;;;5.70;99.90;4.90;99514;;;;573747;246;24067;-74
2023/04/26 02:31:24;;;;;;;2.60;1.67;;;5.70;99.90;4.90;99504;;;;573833;246;24061;-74
2023/04/26 02:33:51;;;;;;;9.93;1.80;;;5.80;99.90;4.90;99509;;;;573774;246;24093;-78
2023/04/26 02:36:19;;;;;;;3.20;1.83;;;5.80;99.90;4.90;99511;;;;573762;246;24079;-74
2023/04/26 02:38:47;;;;;;;1.67;1.30;;;5.80;99.90;5.00;99504;;;;573391;246;24148;-74
2023/04/26 02:41:15;;;;;;;7.13;1.83;;;5.80;99.90;5.00;99506;;;;573741;246;24093;-75
2023/04/26 02:43:43;;;;;;;5.37;2.60;;;5.80;99.90;5.00;99518;;;;573674;246;24093;-74
2023/04/26 02:46:12;;;;;;;4.40;1.80;;;5.80;99.90;5.00;99507;;;;573578;246;24095;-75
2023/04/26 02:48:40;;;;;;;8.20;2.43;;;5.80;99.90;5.00;99503;;;;573806;246;24092;-75
2023/04/26 02:51:07;;;;;;;9.17;1.43;;;5.80;99.90;5.00;99511;;;;573731;246;24069;-75
2023/04/26 02:53:35;;;;;;;9.57;2.03;;;5.80;99.90;4.90;99505;;;;573883;246;24090;-74
2023/04/26 02:56:03;;;;;;;6.97;1.50;;;5.80;99.90;4.90;99499;;;;573634;246;24156;-77
2023/04/26 02:58:31;;;;;;;6.40;1.63;;;5.80;99.90;4.90;99510;;;;573467;246;24077;-78
2023/04/26 03:00:59;;;;;;;6.00;1.93;;;5.80;99.90;4.90;99505;;;;573895;246;24156;-75
2023/04/26 03:03:27;;;;;;;2.87;1.10;;;5.80;99.90;4.90;99511;;;;573925;246;24125;-76
2023/04/26 03:05:56;;;;;;;5.37;1.90;;;5.70;99.90;4.90;99512;;;;573730;246;24141;-76
2023/04/26 03:08:23;;;;;;;6.20;1.37;;;5.70;99.90;4.90;99508;;;;573758;246;24105;-74
2023/04/26 03:10:52;;;;;;;2.70;1.97;;;5.70;99.90;4.90;99505;;;;573677;246;24081;-76
2023/04/26 03:13:20;;;;;;;7.47;1.63;;;5.70;99.90;4.90;99512;;;;573291;246;24076;-74
2023/04/26 03:15:52;;;;;;;3.80;1.87;;;5.70;99.90;4.90;99509;;;;568280;252;24120;-75
2023/04/26 03:18:17;;;;;;;6.20;1.93;;;5.70;99.90;4.90;99513;;;;558093;252;24183;-76
2023/04/26 03:20:47;;;;;;;6.33;1.70;;;5.70;99.90;4.90;99511;;;;569016;246;24080;-78
2023/04/26 03:23:18;;;;;;;10.40;2.10;;;5.70;99.90;4.90;99509;;;;573557;246;24084;-78
2023/04/26 03:25:43;;;;;;;7.43;1.73;;;5.70;99.90;4.90;99509;;;;576781;246;24143;-75
2023/04/26 03:28:11;;;;;;;10.73;1.67;;;5.70;99.90;4.90;99511;;;;573251;246;24086;-75
2023/04/26 03:30:39;;;;;;;6.87;2.00;;;5.70;99.90;4.90;99519;;;;573803;246;24078;-77
2023/04/26 03:33:07;;;;;;;7.67;1.37;;;5.70;99.90;4.90;99515;;;;575331;246;24077;-78
2023/04/26 03:35:35;;;;;;;4.53;2.23;;;5.70;99.90;4.90;99523;;;;575140;246;24068;-78
2023/04/26 03:38:03;;;;;;;3.23;1.63;;;5.70;99.90;4.90;99516;;;;574831;246;24112;-79
2023/04/26 03:40:31;;;;;;;7.80;1.50;;;5.70;99.90;4.90;99519;;;;570136;246;24055;-80
2023/04/26 03:43:01;;;;;;;6.87;2.00;;;5.70;99.90;4.90;99526;;;;569672;246;35172;-80
2023/04/26 03:45:26;;;;;;;7.17;1.50;;;5.70;99.90;4.90;99524;;;;574353;246;25392;-81
2023/04/26 03:47:55;;;;;;;4.77;2.00;;;5.80;99.90;4.90;99527;;;;574547;246;24120;-79
2023/04/26 03:50:22;;;;;;;2.70;1.73;;;5.80;99.90;4.90;99527;;;;573924;246;24071;-75
2023/04/26 03:52:50;;;;;;;6.33;1.70;;;5.80;99.90;5.00;99528;;;;573545;246;24202;-76
2023/04/26 03:55:18;;;;;;;7.30;1.73;;;5.80;99.90;5.00;99527;;;;573330;246;24097;-75
2023/04/26 03:57:46;;;;;;;3.00;1.30;;;5.80;99.90;5.00;99530;;;;573382;246;24123;-80
2023/04/26 04:00:14;;;;;;;7.50;1.73;;;5.80;99.90;5.00;99534;;;;573590;246;24103;-82
2023/04/26 04:02:46;;;;;;;6.17;1.43;;;5.80;99.90;5.00;99533;;;;573605;246;24083;-78
2023/04/26 04:05:10;;;;;;;6.63;1.60;;;5.80;99.90;5.00;99535;;;;570456;246;24057;-80
2023/04/26 04:07:40;;;;;;;4.53;2.00;;;5.80;99.90;5.00;99542;;;;568648;245;24167;-73
2023/04/26 04:10:09;;;;;;;5.37;1.80;;;5.90;99.90;5.00;99536;;;;576714;243;24077;-74
2023/04/26 04:12:33;;;;;;;8.43;2.83;;;5.90;99.90;5.00;99539;;;;573033;246;24079;-79
2023/04/26 04:15:01;;;;;;;5.77;2.00;;;5.90;99.90;5.10;99533;;;;573551;244;24076;-78
2023/04/26 04:17:29;;;;;;;10.37;1.83;;;5.90;99.90;5.10;99541;;;;573205;246;24058;-74
2023/04/26 04:19:57;;;;;;;2.10;1.10;;;5.80;99.90;5.10;99540;;;;573080;246;24073;-74
2023/04/26 04:22:25;;;;;;;4.50;1.47;;;5.90;99.90;5.10;99546;;;;573244;246;24118;-75
2023/04/26 04:24:53;;;;;;;8.17;1.53;;;5.90;99.90;5.10;99546;;;;568261;246;24058;-74
2023/04/26 04:27:24;;;;;;;9.17;1.60;;;5.90;99.90;5.10;99547;;;;572884;246;24071;-74
2023/04/26 04:29:49;;;;;;;6.87;2.43;;;5.80;99.90;5.00;99543;;;;572741;246;24074;-74
2023/04/26 04:32:17;;;;;;;3.17;1.10;;;5.90;99.90;5.10;99544;;;;572866;246;24073;-74
2023/04/26 04:34:45;;;;;;;8.40;2.20;;;5.90;99.90;5.10;99541;;;;573018;246;24106;-74
2023/04/26 04:37:14;;;;;;;5.90;2.00;;;5.90;99.90;5.10;99542;;;;572910;246;24051;-74
2023/04/26 04:39:42;;;;;;;5.67;1.50;;;5.90;99.90;5.10;99537;;;;573455;246;24072;-75
2023/04/26 04:42:11;;;;;;;9.93;2.17;;;5.90;99.90;5.20;99542;;;;568341;246;24116;-75
2023/04/26 04:44:38;;;;;;;7.00;1.30;;;6.00;99.90;5.20;99541;;;;574448;246;24076;-79
2023/04/26 04:47:05;;;;;;;5.43;2.07;;;6.00;99.90;5.20;99544;;;;574514;246;24173;-78
2023/04/26 04:49:33;;;;;;;10.93;2.37;;;6.00;99.90;5.30;99551;;;;573806;246;24099;-80
2023/04/26 04:52:01;;;;;;;5.73;1.43;;;6.10;99.90;5.30;99550;;;;573944;246;24071;-80
2023/04/26 04:54:29;;;;;;;3.13;1.40;;;6.10;99.90;5.40;99557;;;;573768;246;24132;-78
2023/04/26 04:56:57;;;;;;;16.37;2.37;;;6.20;99.90;5.40;99562;;;;573611;246;24092;-80
2023/04/26 04:59:26;;;;;;;6.80;1.80;;;6.30;99.90;5.50;99552;;;;574076;246;24094;-79
2023/04/26 05:01:54;;;;;;;6.07;1.90;;;6.20;99.90;5.60;99557;;;;573936;246;24085;-80
2023/04/26 05:04:22;;;;;;;6.70;1.73;;;6.50;99.90;5.70;99555;;;;573851;246;24105;-80
2023/04/26 05:06:51;;;;;;;10.30;1.97;;;6.50;99.90;5.80;99561;;;;573833;246;24038;-78
2023/04/26 05:09:18;;;;;;;10.13;2.20;;;6.60;99.90;5.90;99556;;;;573751;246;24058;-79
2023/04/26 05:11:46;;;;;;;5.47;1.27;;;6.70;99.90;5.90;99571;;;;573888;246;24108;-80
2023/04/26 05:14:14;;;;;;;6.13;1.63;;;6.70;99.90;5.90;99568;;;;573713;246;24045;-79
2023/04/26 05:16:42;;;;;;;8.07;1.73;;;6.70;99.90;5.90;99575;;;;573388;246;24080;-78
2023/04/26 05:19:13;;;;;;;5.67;1.17;;;6.70;99.90;6.00;99571;;;;573163;246;24077;-79
2023/04/26 05:21:37;;;;;;;7.57;1.83;;;6.70;99.90;6.00;99575;;;;572982;246;24070;-80
2023/04/26 05:24:05;;;;;;;9.53;2.20;;;6.80;99.90;6.10;99569;;;;573123;246;24097;-79
2023/04/26 05:26:33;;;;;;;10.77;1.87;;;6.90;99.90;6.10;99577;;;;573044;246;24082;-77
2023/04/26 05:29:01;;;;;;;5.20;1.90;;;6.90;99.90;6.20;99586;;;;573156;246;24055;-74
2023/04/26 05:31:29;;;;;;;7.77;2.40;;;7.00;99.90;6.20;99583;;;;573132;246;24064;-79
2023/04/26 05:33:57;;;;;;;8.77;1.77;;;7.00;99.90;6.30;99589;;;;573329;246;24119;-79
2023/04/26 05:36:25;;;;;;;4.63;1.23;;;7.00;99.90;6.30;99575;;;;573381;246;24103;-78
2023/04/26 05:38:53;;;;;;;19.90;2.93;;;7.10;99.90;6.40;99565;;;;573785;246;24071;-77
2023/04/26 05:41:21;;;;;;;7.07;2.43;;;7.10;99.90;6.40;99568;;;;574385;246;24105;-76
2023/04/26 05:43:49;;;;;;;11.80;2.23;;;7.20;99.90;6.50;99570;;;;574489;246;24127;-75
2023/04/26 05:46:16;;;;;;;3.20;1.13;;;7.20;99.90;6.60;99576;;;;574346;246;24164;-75
2023/04/26 05:48:45;;;;;;;8.17;1.67;;;7.30;99.90;6.70;99571;;;;574554;246;24053;-73
2023/04/26 05:51:15;;;;;;;8.07;1.93;;;7.50;99.90;6.80;99582;;;;574223;246;24073;-75
2023/04/26 05:53:40;;;;;;;26.10;2.63;;;7.60;99.90;7.10;99578;;;;573697;246;24080;-74
2023/04/26 05:56:08;;;;;;;4.00;1.97;;;7.70;99.90;7.60;99586;;;;574473;246;24059;-78
2023/04/26 05:58:36;;;;;;;7.90;2.63;;;8.20;99.90;8.40;99593;;;;574160;246;24122;-79
2023/04/26 06:01:04;;;;;;;7.50;2.20;;;8.90;99.90;9.10;99594;;;;573732;246;24063;-79
2023/04/26 06:03:33;;;;;;;4.30;1.83;;;10.10;99.90;9.40;99583;;;;573700;246;24070;-79
2023/04/26 06:06:00;;;;;;;13.60;2.90;;;10.10;99.90;9.50;99587;;;;573551;246;24156;-77
2023/04/26 06:08:29;;;;;;;9.83;2.50;;;10.30;99.90;9.50;99597;;;;573896;246;24079;-79
2023/04/26 06:10:56;;;;;;;24.37;2.93;;;10.30;99.90;9.50;99589;;;;573526;246;24103;-79
2023/04/26 06:13:25;;;;;;;7.07;1.80;;;10.20;99.90;9.40;99594;;;;573285;246;24104;-79
2023/04/26 06:15:56;;;;;;;5.07;2.00;;;10.20;99.90;9.20;99599;;;;573387;246;24147;-78
2023/04/26 06:18:24;;;;;;;7.87;1.70;;;10.00;99.90;9.00;99593;;;;573652;246;24072;-75
2023/04/26 06:20:52;;;;;;;6.50;2.30;;;9.80;99.90;8.90;99592;;;;573609;246;24084;-78
2023/04/26 06:23:20;;;;;;;9.50;2.43;;;9.70;99.90;8.80;99600;;;;573407;246;24078;-74
2023/04/26 06:25:48;;;;;;;2.50;2.00;;;9.50;99.90;8.70;99590;;;;573181;246;24112;-74
2023/04/26 06:28:16;;;;;;;6.03;2.33;;;9.50;99.90;8.70;99595;;;;573335;246;24250;-79
2023/04/26 06:30:44;;;;;;;15.13;2.77;;;9.40;99.90;8.70;99603;;;;573137;246;24090;-74
2023/04/26 06:33:12;;;;;;;13.17;2.77;;;9.40;99.90;8.80;99592;;;;573096;246;24048;-78
2023/04/26 06:35:41;;;;;;;13.20;2.30;;;9.50;99.90;8.80;99592;;;;573087;246;24063;-77
2023/04/26 06:38:11;;;;;;;11.17;2.37;;;9.50;99.90;8.80;99589;;;;573200;246;24072;-75
2023/04/26 06:40:36;;;;;;;4.13;1.93;;;9.50;99.90;9.00;99594;;;;573093;246;24081;-78
2023/04/26 06:43:04;;;;;;;5.97;2.20;;;9.60;99.90;9.10;99592;;;;573344;246;24072;-75
2023/04/26 06:45:32;;;;;;;6.27;2.23;;;9.80;99.90;9.40;99598;;;;573411;246;24061;-75
2023/04/26 06:48:05;;;;;;;8.57;1.77;;;10.30;99.90;9.70;99595;;;;573447;246;24045;-74
2023/04/26 06:50:29;;;;;;;5.73;1.83;;;10.30;99.90;10.00;99599;;;;573835;246;24068;-75
2023/04/26 06:52:57;;;;;;;20.03;4.00;;;10.70;99.90;10.60;99598;;;;573628;246;24068;-76
2023/04/26 06:55:25;;;;;;;14.40;1.80;;;11.20;99.90;12.60;99599;;;;572990;246;24070;-78
2023/04/26 06:57:56;;;;;;;8.83;1.87;;;12.70;99.90;14.10;99609;;;;573203;246;24135;-74
2023/04/26 07:00:20;;;;;;;3.50;1.60;;;14.30;99.90;15.00;99613;;;;572584;246;24084;-77
2023/04/26 07:02:49;;;;;;;4.33;1.60;;;16.20;94.00;15.70;99606;;;;568339;246;24164;-78
2023/04/26 07:05:17;;;;;;;5.90;1.77;;;16.10;93.90;15.40;99616;;;;572961;246;24120;-78
2023/04/26 07:07:45;;;;;;;13.70;2.00;;;16.30;91.50;14.80;99616;;;;574570;246;24085;-77
2023/04/26 07:10:16;;;;;;;14.57;2.47;;;15.80;90.90;14.30;99613;;;;574171;246;23068;-79
2023/04/26 07:12:41;;;;;;;8.40;2.37;;;15.30;91.80;14.00;99616;;;;573664;246;24082;-78
2023/04/26 07:15:12;;;;;;;8.90;2.23;;;14.90;92.30;13.70;99621;;;;573846;246;24082;-80
2023/04/26 07:17:37;;;;;;;19.20;3.78;;;14.60;92.30;13.40;99616;;;;563578;246;35129;-79
2023/04/26 07:20:07;;;;;;;18.43;3.60;;;14.30;92.50;12.90;99621;;;;573966;246;24048;-79
2023/04/26 07:22:34;;;;;;;7.47;2.60;;;13.80;92.80;12.40;99622;;;;570914;246;24065;-79
2023/04/26 07:25:03;;;;;;;6.50;2.00;;;13.30;93.30;11.90;99614;;;;573855;246;24061;-77
2023/04/26 07:27:33;;;;;;;6.17;2.00;;;12.80;93.90;11.60;99621;;;;573368;246;24107;-76
2023/04/26 07:29:58;;;;;;;7.27;1.90;;;12.40;94.60;11.40;99624;;;;573037;246;24123;-77
2023/04/26 07:32:27;;;;;;;6.63;1.83;;;11.90;96.20;11.10;99618;;;;573420;246;24091;-78
2023/04/26 07:34:55;;;;;;;12.13;1.77;;;11.80;95.80;10.90;99617;;;;573202;246;24174;-76
2023/04/26 07:37:26;;;;;;;5.57;1.90;;;11.60;96.70;11.00;99629;;;;573402;246;24069;-75
2023/04/26 07:39:51;;;;;;;7.20;1.60;;;11.60;97.20;11.40;99627;;;;573103;246;24094;-75
2023/04/26 07:42:19;;;;;;;7.40;1.80;;;11.90;97.40;11.90;99628;;;;573129;246;24119;-75
2023/04/26 07:44:49;;;;;;;3.00;1.67;;;12.40;96.60;12.10;99630;;;;573052;246;24044;-74
2023/04/26 07:47:17;;;;;;;14.97;2.63;;;12.70;95.90;12.10;99624;;;;572980;246;24067;-75
2023/04/26 07:49:46;;;;;;;4.73;2.03;;;12.90;95.60;12.20;99636;;;;573432;246;24070;-74
2023/04/26 07:52:14;;;;;;;5.03;1.90;;;12.90;95.60;12.40;99624;;;;573425;246;24108;-76
2023/04/26 07:54:42;;;;;;;3.93;1.77;;;13.10;95.40;12.50;99635;;;;573178;246;24062;-78
2023/04/26 07:57:10;;;;;;;8.40;1.70;;;13.20;95.50;12.20;99635;;;;572771;246;24075;-75
2023/04/26 07:59:38;;;;;;;7.00;1.80;;;12.60;95.00;11.70;99640;;;;572937;246;24072;-74
2023/04/26 08:02:07;;;;;;;6.60;1.60;;;12.20;95.80;11.30;99643;;;;573032;246;24124;-75
2023/04/26 08:04:35;;;;;;;4.03;1.70;;;12.10;95.80;11.20;99636;;;;572901;246;24058;-76
2023/04/26 08:07:03;;;;;;;6.10;1.50;;;12.00;96.30;11.50;99643;;;;573091;246;24073;-74
2023/04/26 08:09:31;;;;;;;9.30;1.70;;;12.10;96.80;11.80;99643;;;;572992;246;24075;-75
2023/04/26 08:12:00;;;;;;;4.53;1.40;;;12.50;96.00;11.90;99647;;;;573138;246;24050;-74
2023/04/26 08:14:29;;;;;;;6.73;1.43;;;12.50;96.00;11.90;99646;;;;572926;246;24075;-75
2023/04/26 08:16:55;;;;;;;10.27;1.77;;;12.60;96.50;11.70;99648;;;;572874;246;24065;-74
2023/04/26 08:19:25;;;;;;;3.80;1.40;;;12.40;96.30;11.40;99649;;;;574724;246;24193;-74
2023/04/26 08:21:52;;;;;;;7.03;1.77;;;11.90;97.20;11.10;99645;;;;574365;246;24075;-74
2023/04/26 08:24:20;;;;;;;8.43;1.70;;;11.50;97.90;10.70;99644;;;;573936;246;24134;-74
2023/04/26 08:26:48;;;;;;;5.15;1.75;;;11.50;97.90;10.50;99647;;;;568814;246;45966;-75
2023/04/26 08:29:17;;;;;;;5.47;1.90;;;11.30;98.90;10.20;99649;;;;573470;246;24126;-75
2023/04/26 08:31:44;;;;;;;5.17;1.80;;;11.00;99.90;9.80;99661;;;;573596;246;24170;-74
2023/04/26 08:34:13;;;;;;;6.57;1.63;;;10.20;99.90;9.30;99659;;;;573585;246;24049;-74
2023/04/26 08:36:44;;;;;;;3.77;1.37;;;10.20;99.90;9.10;99661;;;;573446;246;24065;-76
2023/04/26 08:39:10;;;;;;;6.83;1.80;;;9.90;99.90;9.00;99654;;;;573143;246;24080;-77
2023/04/26 08:41:40;;;;;;;13.63;2.37;;;9.80;99.90;8.90;99665;;;;573758;246;24070;-80
2023/04/26 08:44:08;;;;;;;9.60;1.87;;;9.70;99.90;8.90;99662;;;;573143;246;24095;-77
2023/04/26 08:46:47;;;;;;;4.40;1.77;;;9.60;99.90;8.80;99653;;;;569264;246;24102;-76
2023/04/26 08:49:40;;;;;;;5.03;1.77;;;9.60;99.90;8.80;99656;;;;573081;246;24063;-77
2023/04/26 08:52:05;;;;;;;5.20;1.77;;;9.60;99.90;8.90;99667;;;;573751;246;24078;-75
2023/04/26 08:54:33;;;;;;;2.63;1.13;;;9.60;99.90;8.90;99663;;;;573436;246;24060;-77
2023/04/26 08:57:00;;;;;;;4.10;1.40;;;9.60;99.90;9.00;99674;;;;573229;246;24137;-78
2023/04/26 08:59:31;;;;;;;5.23;1.60;;;9.70;99.90;9.00;99666;;;;573085;246;24143;-77
2023/04/26 09:02:03;;;;;;;6.37;1.30;;;9.70;99.90;8.90;99660;;;;572967;246;24082;-76
2023/04/26 09:04:27;;;;;;;8.10;1.60;;;9.60;99.90;8.70;99667;;;;572400;246;24075;-79
2023/04/26 09:06:55;;;;;;;3.43;1.30;;;9.50;99.90;8.70;99676;;;;572961;246;24079;-79
2023/04/26 09:09:23;;;;;;;13.73;1.70;;;9.40;99.90;8.70;99679;;;;572837;246;24073;-79
2023/04/26 09:11:56;;;;;;;3.13;1.43;;;9.40;99.90;8.60;99689;;;;569041;246;24121;-76
2023/04/26 09:14:24;;;;;;;10.00;1.80;;;9.40;99.90;8.50;99688;;;;573060;246;24134;-80
2023/04/26 09:16:52;;;;;;;6.37;2.57;;;9.30;99.90;8.60;99686;;;;572891;246;24095;-75
2023/04/26 09:19:44;;;;;;;3.30;1.73;;;9.30;99.90;8.70;99679;;;;572918;246;24092;-76
2023/04/26 09:22:11;;;;;;;0.87;0.87;;;9.40;99.90;8.80;99686;;;;573395;246;24064;-76
2023/04/26 09:24:51;;;;;;;6.73;1.30;;;9.50;99.90;8.70;99692;;;;573356;246;24068;-76
2023/04/26 09:27:16;;;;;;;4.57;1.50;;;9.40;99.90;8.70;99685;;;;572453;246;24145;-78
2023/04/26 09:29:41;;;;;;;2.23;1.27;;;9.40;99.90;8.70;99691;;;;573583;245;25115;-79
2023/04/26 09:32:09;;;;;;;2.90;0.97;;;9.40;99.90;8.80;99697;;;;568441;246;24073;-79
2023/04/26 09:34:46;;;;;;;1.50;1.03;;;9.50;99.90;8.80;99683;;;;573746;246;24090;-79
2023/04/26 09:37:14;;;;;;;3.00;1.03;;;9.50;99.90;8.70;99695;;;;573866;246;24076;-79
2023/04/26 09:39:44;;;;;;;1.83;1.07;;;9.40;99.90;8.60;99693;;;;573700;246;24237;-80
2023/04/26 09:42:12;;;;;;;1.00;0.80;;;9.30;99.90;8.50;99697;;;;573759;246;24080;-77
2023/04/26 09:44:40;;;;;;;2.47;0.93;;;9.30;99.90;8.60;99704;;;;573437;246;24082;-77
2023/04/26 09:47:11;;;;;;;0.30;0.30;;;9.30;99.90;8.70;99706;;;;573812;246;24148;-78
2023/04/26 09:49:49;;;;;;;1.97;1.00;;;9.40;99.90;8.80;99713;;;;572987;246;24114;-80
2023/04/26 09:52:13;;;;;;;2.93;1.33;;;9.50;99.90;9.10;99706;;;;573125;246;24110;-78
2023/04/26 09:54:46;;;;;;;1.03;1.03;;;9.70;99.90;9.30;99716;;;;573107;246;24144;-78
2023/04/26 09:57:14;;;;;;;2.83;1.33;;;10.00;99.90;9.60;99714;;;;569947;247;24159;-75
2023/04/26 09:59:45;;;;;;;3.90;1.20;;;10.30;99.90;10.00;99714;;;;573064;246;24083;-76
2023/04/26 10:02:22;;;;;;;1.07;0.97;;;10.60;99.90;10.40;99722;;;;572969;246;24143;-75
2023/04/26 10:04:50;;;;;;;4.80;1.27;;;11.40;99.90;10.70;99722;;;;574031;246;24081;-78
2023/04/26 10:07:19;;;;;;;5.63;1.47;;;11.50;99.90;10.80;99725;;;;572618;246;24136;-75
2023/04/26 10:09:47;;;;;;;1.93;1.30;;;11.50;99.90;10.50;99724;;;;573156;244;24066;-74
2023/04/26 10:12:15;;;;;;;2.87;1.60;;;11.30;99.90;10.30;99738;;;;577364;246;24117;-76
2023/04/26 10:14:43;;;;;;;3.07;1.30;;;11.10;99.90;10.20;99732;;;;573263;246;24073;-75
2023/04/26 10:17:13;;;;;;;10.33;1.60;;;10.90;99.90;9.90;99740;;;;573686;246;24120;-75
2023/04/26 10:19:45;;;;;;;4.37;1.50;;;10.50;99.90;9.60;99739;;;;574138;246;24119;-75
2023/04/26 10:22:15;;;;;;;2.23;1.20;;;10.40;99.90;9.40;99743;;;;574817;246;24090;-77
2023/04/26 10:24:47;;;;;;;3.60;1.57;;;10.20;99.90;9.50;99741;;;;574406;246;24136;-75
2023/04/26 10:27:11;;;;;;;3.60;1.20;;;10.20;99.90;9.90;99727;;;;572973;246;24095;-78
2023/04/26 10:29:55;;;;;;;2.17;0.97;;;10.50;99.90;10.40;99752;;;;573029;246;24074;-77
2023/04/26 10:32:22;;;;;;;8.03;1.70;;;11.00;99.90;11.10;99758;;;;581515;246;24101;-75
2023/04/26 10:35:11;;;;;;;11.20;2.50;;;11.70;99.90;11.80;99754;;;;572874;246;24068;-78
2023/04/26 10:38:01;;;;;;;4.27;1.63;;;12.40;99.90;12.90;99759;;;;568114;246;24058;-74
2023/04/26 10:40:38;;;;;;;3.70;2.23;;;14.30;99.90;13.60;99762;;;;581759;246;24123;-79
2023/04/26 10:43:18;;;;;;;7.53;2.20;;;14.30;99.90;13.80;99777;;;;574807;246;25189;-75
2023/04/26 10:45:43;;;;;;;5.30;1.90;;;14.60;99.90;13.80;99779;;;;568951;246;24066;-79
2023/04/26 10:48:20;;;;;;;5.17;1.90;;;14.40;99.90;13.60;99786;;;;570366;247;24190;-74
2023/04/26 10:51:12;;;;;;;6.60;2.37;;;14.40;99.90;13.20;99790;;;;573541;246;24076;-79
2023/04/26 10:53:47;;;;;;;4.73;1.97;;;13.80;99.90;12.90;99788;;;;582612;245;24155;-75
2023/04/26 10:56:24;;;;;;;4.43;1.73;;;13.80;99.90;12.40;99788;;;;582129;245;24066;-74
2023/04/26 10:59:13;;;;;;;7.23;2.07;;;13.30;99.90;11.90;99786;;;;582054;245;24403;-77
2023/04/26 11:01:38;;;;;;;4.83;1.97;;;12.80;99.90;11.60;99802;;;;563601;247;24118;-76
2023/04/26 11:04:09;;;;;;;5.93;1.87;;;12.50;99.90;11.40;99791;;;;568677;246;24055;-77
2023/04/26 11:06:56;;;;;;;6.20;2.77;;;12.20;99.90;11.20;99794;;;;573461;246;24116;-81
2023/04/26 11:09:41;;;;;;;6.63;2.30;;;12.00;99.90;11.20;99801;;;;573005;246;24165;-77
2023/04/26 11:12:12;;;;;;;4.33;2.13;;;11.90;99.90;11.40;99797;;;;573131;246;24084;-79
2023/04/26 11:14:43;;;;;;;6.40;2.40;;;12.10;99.90;11.70;99795;;;;572967;246;24089;-76
2023/04/26 11:17:14;;;;;;;4.90;2.30;;;12.40;99.90;11.80;99796;;;;572871;240;24072;-75
2023/04/26 11:19:39;;;;;;;5.77;2.23;;;12.50;99.90;11.80;99789;;;;572407;246;24087;-76
2023/04/26 11:22:07;;;;;;;8.20;2.37;;;12.50;99.90;11.70;99802;;;;572686;246;24055;-74
2023/04/26 11:24:38;;;;;;;2.70;1.83;;;12.20;99.90;11.40;99806;;;;573180;246;24063;-75
2023/04/26 11:27:09;;;;;;;4.20;1.80;;;12.20;99.90;11.10;99807;;;;573201;246;24132;-77
2023/04/26 11:29:37;;;;;;;8.83;2.30;;;11.90;99.90;10.90;99808;;;;573141;246;24088;-77
2023/04/26 11:32:08;;;;;;;8.93;1.87;;;11.60;99.90;11.10;99807;;;;572700;246;24110;-78
2023/04/26 11:34:36;;;;;;;5.27;1.87;;;11.70;99.90;11.30;99798;;;;572805;246;24102;-78